sensor_id;sensor_type;location;lat;lon;timestamp;pressure;altitude;pressure_sealevel;temperature;humidity
73024;BME280;61199;47.526;8.538;2022-07-04T00:02:03;96658.97;;;23.23;65.14
73024;BME280;61199;47.526;8.538;2022-07-04T00:04:28;96653.59;;;23.36;64.75
73024;BME280;61199;47.526;8.538;2022-07-04T00:06:53;96659.97;;;23.55;64.00
73024;BME280;61199;47.526;8.538;2022-07-04T00:09:18;96656.22;;;23.69;63.65
73024;BME280;61199;47.526;8.538;2022-07-04T00:11:44;96644.50;;;23.63;63.39
73024;BME280;61199;47.526;8.538;2022-07-04T00:14:09;96650.94;;;23.49;63.50
73024;BME280;61199;47.526;8.538;2022-07-04T00:16:34;96653.81;;;23.41;63.78
73024;BME280;61199;47.526;8.538;2022-07-04T00:19:00;96655.28;;;23.37;64.10
73024;BME280;61199;47.526;8.538;2022-07-04T00:21:26;96658.34;;;23.34;64.47
73024;BME280;61199;47.526;8.538;2022-07-04T00:23:51;96664.34;;;23.17;65.68
73024;BME280;61199;47.526;8.538;2022-07-04T00:26:16;96668.03;;;23.22;64.94
73024;BME280;61199;47.526;8.538;2022-07-04T00:28:42;96671.69;;;23.41;64.28
73024;BME280;61199;47.526;8.538;2022-07-04T00:31:08;96662.22;;;23.51;64.32
73024;BME280;61199;47.526;8.538;2022-07-04T00:33:33;96664.06;;;23.64;64.57
73024;BME280;61199;47.526;8.538;2022-07-04T00:35:58;96656.81;;;23.77;63.95
73024;BME280;61199;47.526;8.538;2022-07-04T00:38:24;96658.03;;;23.81;63.32
73024;BME280;61199;47.526;8.538;2022-07-04T00:40:49;96658.88;;;23.82;63.66
73024;BME280;61199;47.526;8.538;2022-07-04T00:43:23;96650.47;;;23.72;64.28
73024;BME280;61199;47.526;8.538;2022-07-04T00:45:49;96658.47;;;23.78;63.92
73024;BME280;61199;47.526;8.538;2022-07-04T00:48:14;96658.50;;;23.72;64.27
73024;BME280;61199;47.526;8.538;2022-07-04T00:50:44;96649.41;;;23.79;64.03
73024;BME280;61199;47.526;8.538;2022-07-04T00:53:11;96654.16;;;23.71;64.53
73024;BME280;61199;47.526;8.538;2022-07-04T00:55:37;96657.28;;;23.61;64.80
73024;BME280;61199;47.526;8.538;2022-07-04T00:58:03;96659.75;;;23.56;64.57
73024;BME280;61199;47.526;8.538;2022-07-04T01:00:29;96667.97;;;23.61;65.25
73024;BME280;61199;47.526;8.538;2022-07-04T01:02:54;96673.13;;;23.56;65.43
73024;BME280;61199;47.526;8.538;2022-07-04T01:05:20;96679.94;;;23.46;65.42
73024;BME280;61199;47.526;8.538;2022-07-04T01:07:46;96688.38;;;23.23;66.31
73024;BME280;61199;47.526;8.538;2022-07-04T01:10:11;96681.16;;;23.04;67.28
73024;BME280;61199;47.526;8.538;2022-07-04T01:12:37;96673.94;;;22.98;67.74
73024;BME280;61199;47.526;8.538;2022-07-04T01:15:03;96670.06;;;23.14;67.63
73024;BME280;61199;47.526;8.538;2022-07-04T01:17:28;96676.66;;;23.24;66.54
73024;BME280;61199;47.526;8.538;2022-07-04T01:19:53;96684.06;;;23.42;66.57
73024;BME280;61199;47.526;8.538;2022-07-04T01:22:19;96686.72;;;23.35;66.06
73024;BME280;61199;47.526;8.538;2022-07-04T01:24:48;96699.50;;;23.20;66.44
73024;BME280;61199;47.526;8.538;2022-07-04T01:27:14;96695.31;;;23.05;67.03
73024;BME280;61199;47.526;8.538;2022-07-04T01:29:40;96695.56;;;23.03;66.86
73024;BME280;61199;47.526;8.538;2022-07-04T01:32:07;96698.84;;;23.05;66.90
73024;BME280;61199;47.526;8.538;2022-07-04T01:34:33;96704.22;;;23.18;66.39
73024;BME280;61199;47.526;8.538;2022-07-04T01:36:59;96690.25;;;23.29;66.18
73024;BME280;61199;47.526;8.538;2022-07-04T01:39:26;96693.72;;;23.43;65.63
73024;BME280;61199;47.526;8.538;2022-07-04T01:41:51;96678.69;;;23.35;65.84
73024;BME280;61199;47.526;8.538;2022-07-04T01:44:16;96680.34;;;23.36;66.20
73024;BME280;61199;47.526;8.538;2022-07-04T01:46:42;96701.13;;;23.34;66.21
73024;BME280;61199;47.526;8.538;2022-07-04T01:49:07;96702.13;;;23.01;67.43
73024;BME280;61199;47.526;8.538;2022-07-04T01:51:33;96689.19;;;22.91;67.96
73024;BME280;61199;47.526;8.538;2022-07-04T01:53:59;96688.94;;;22.93;68.31
73024;BME280;61199;47.526;8.538;2022-07-04T01:56:24;96699.25;;;22.96;67.91
73024;BME280;61199;47.526;8.538;2022-07-04T01:58:49;96705.81;;;22.93;67.62
73024;BME280;61199;47.526;8.538;2022-07-04T02:01:15;96713.00;;;22.93;68.19
73024;BME280;61199;47.526;8.538;2022-07-04T02:03:59;96737.41;;;22.64;68.34
73024;BME280;61199;47.526;8.538;2022-07-04T02:06:25;96737.56;;;22.43;69.44
73024;BME280;61199;47.526;8.538;2022-07-04T02:08:51;96750.44;;;22.39;69.56
73024;BME280;61199;47.526;8.538;2022-07-04T02:11:35;96756.13;;;22.23;70.48
73024;BME280;61199;47.526;8.538;2022-07-04T02:14:19;96774.59;;;22.25;70.76
73024;BME280;61199;47.526;8.538;2022-07-04T02:16:44;96771.19;;;22.37;70.45
73024;BME280;61199;47.526;8.538;2022-07-04T02:19:10;96775.56;;;22.51;70.24
73024;BME280;61199;47.526;8.538;2022-07-04T02:21:35;96802.84;;;22.40;70.80
73024;BME280;61199;47.526;8.538;2022-07-04T02:24:00;96807.59;;;22.45;70.58
73024;BME280;61199;47.526;8.538;2022-07-04T02:26:26;96808.72;;;22.29;71.17
73024;BME280;61199;47.526;8.538;2022-07-04T02:28:51;96818.31;;;22.51;70.52
73024;BME280;61199;47.526;8.538;2022-07-04T02:31:17;96819.22;;;22.71;69.58
73024;BME280;61199;47.526;8.538;2022-07-04T02:33:42;96839.00;;;22.83;69.76
73024;BME280;61199;47.526;8.538;2022-07-04T02:36:08;96860.75;;;22.80;69.80
73024;BME280;61199;47.526;8.538;2022-07-04T02:38:33;96887.00;;;22.64;nan
73024;BME280;61199;47.526;8.538;2022-07-04T02:40:58;96886.44;;;22.41;71.61
73024;BME280;61199;47.526;8.538;2022-07-04T02:43:23;96884.34;;;22.09;72.46
73024;BME280;61199;47.526;8.538;2022-07-04T02:45:49;96901.69;;;21.98;72.95
73024;BME280;61199;47.526;8.538;2022-07-04T02:48:14;96911.34;;;21.99;72.62
73024;BME280;61199;47.526;8.538;2022-07-04T02:50:39;96909.56;;;21.79;73.40
73024;BME280;61199;47.526;8.538;2022-07-04T02:53:04;96903.66;;;21.83;73.14
73024;BME280;61199;47.526;8.538;2022-07-04T02:55:30;96900.94;;;21.62;73.78
73024;BME280;61199;47.526;8.538;2022-07-04T02:57:55;96908.19;;;21.47;74.57
73024;BME280;61199;47.526;8.538;2022-07-04T03:00:20;96903.63;;;21.41;74.38
73024;BME280;61199;47.526;8.538;2022-07-04T03:02:46;96907.53;;;21.24;75.50
73024;BME280;61199;47.526;8.538;2022-07-04T03:05:11;96916.59;;;21.30;75.35
73024;BME280;61199;47.526;8.538;2022-07-04T03:07:37;96903.94;;;21.17;75.80
73024;BME280;61199;47.526;8.538;2022-07-04T03:10:02;96909.25;;;20.97;76.32
73024;BME280;61199;47.526;8.538;2022-07-04T03:12:28;96904.00;;;20.74;78.15
73024;BME280;61199;47.526;8.538;2022-07-04T03:14:53;96902.72;;;20.99;77.24
73024;BME280;61199;47.526;8.538;2022-07-04T03:17:19;96906.22;;;21.00;77.36
73024;BME280;61199;47.526;8.538;2022-07-04T03:19:44;96902.16;;;21.04;77.87
73024;BME280;61199;47.526;8.538;2022-07-04T03:22:10;96894.31;;;21.16;77.30
73024;BME280;61199;47.526;8.538;2022-07-04T03:24:35;96880.63;;;21.19;77.19
73024;BME280;61199;47.526;8.538;2022-07-04T03:27:01;96868.22;;;21.12;77.05
73024;BME280;61199;47.526;8.538;2022-07-04T03:29:26;96857.31;;;21.07;77.20
73024;BME280;61199;47.526;8.538;2022-07-04T03:31:51;96839.13;;;21.11;76.79
73024;BME280;61199;47.526;8.538;2022-07-04T03:34:17;96825.28;;;21.01;76.94
73024;BME280;61199;47.526;8.538;2022-07-04T03:36:42;96805.13;;;21.13;77.32
73024;BME280;61199;47.526;8.538;2022-07-04T03:39:07;96771.47;;;21.32;76.85
73024;BME280;61199;47.526;8.538;2022-07-04T03:41:32;96761.41;;;21.55;75.93
73024;BME280;61199;47.526;8.538;2022-07-04T03:43:58;96742.09;;;21.74;75.14
73024;BME280;61199;47.526;8.538;2022-07-04T03:46:23;96734.56;;;21.84;74.61
73024;BME280;61199;47.526;8.538;2022-07-04T03:48:49;96733.69;;;21.77;73.95
73024;BME280;61199;47.526;8.538;2022-07-04T03:51:14;96750.16;;;21.87;73.39
73024;BME280;61199;47.526;8.538;2022-07-04T03:53:42;96743.47;;;21.98;73.60
73024;BME280;61199;47.526;8.538;2022-07-04T03:56:07;96760.16;;;22.13;72.99
73024;BME280;61199;47.526;8.538;2022-07-04T03:58:33;96780.94;;;21.83;73.81
73024;BME280;61199;47.526;8.538;2022-07-04T04:00:59;96768.44;;;21.90;73.08
73024;BME280;61199;47.526;8.538;2022-07-04T04:03:24;96768.72;;;22.02;72.24
73024;BME280;61199;47.526;8.538;2022-07-04T04:06:08;96790.09;;;22.08;72.43
73024;BME280;61199;47.526;8.538;2022-07-04T04:08:33;96783.13;;;21.73;71.47
73024;BME280;61199;47.526;8.538;2022-07-04T04:10:59;96788.69;;;21.78;72.46
73024;BME280;61199;47.526;8.538;2022-07-04T04:13:24;96779.75;;;21.65;72.43
73024;BME280;61199;47.526;8.538;2022-07-04T04:15:49;96773.47;;;21.72;72.05
73024;BME280;61199;47.526;8.538;2022-07-04T04:18:14;96778.63;;;21.80;71.52
73024;BME280;61199;47.526;8.538;2022-07-04T04:20:40;96778.34;;;21.96;70.93
73024;BME280;61199;47.526;8.538;2022-07-04T04:23:05;96791.38;;;22.12;69.65
73024;BME280;61199;47.526;8.538;2022-07-04T04:25:31;96801.41;;;21.76;71.12
73024;BME280;61199;47.526;8.538;2022-07-04T04:27:57;96799.75;;;21.75;71.35
73024;BME280;61199;47.526;8.538;2022-07-04T04:30:22;96800.56;;;21.55;72.71
73024;BME280;61199;47.526;8.538;2022-07-04T04:32:47;96801.31;;;21.21;73.63
73024;BME280;61199;47.526;8.538;2022-07-04T04:35:13;96810.06;;;20.95;74.94
73024;BME280;61199;47.526;8.538;2022-07-04T04:37:38;96832.31;;;20.73;76.36
73024;BME280;61199;47.526;8.538;2022-07-04T04:40:04;96843.88;;;20.65;77.08
73024;BME280;61199;47.526;8.538;2022-07-04T04:42:29;96859.50;;;20.54;77.71
73024;BME280;61199;47.526;8.538;2022-07-04T04:44:55;96868.78;;;20.58;77.69
73024;BME280;61199;47.526;8.538;2022-07-04T04:47:20;96880.06;;;20.45;78.27
73024;BME280;61199;47.526;8.538;2022-07-04T04:49:46;96893.75;;;20.42;78.45
73024;BME280;61199;47.526;8.538;2022-07-04T04:52:12;96911.28;;;20.22;79.07
73024;BME280;61199;47.526;8.538;2022-07-04T04:54:37;96902.63;;;20.06;79.47
73024;BME280;61199;47.526;8.538;2022-07-04T04:57:03;96901.63;;;19.84;79.99
73024;BME280;61199;47.526;8.538;2022-07-04T04:59:29;96896.75;;;19.88;79.99
73024;BME280;61199;47.526;8.538;2022-07-04T05:01:58;96886.66;;;20.06;79.01
73024;BME280;61199;47.526;8.538;2022-07-04T05:04:24;96879.91;;;20.18;78.39
73024;BME280;61199;47.526;8.538;2022-07-04T05:06:49;96880.06;;;20.31;77.75
73024;BME280;61199;47.526;8.538;2022-07-04T05:09:15;96874.56;;;20.47;76.62
73024;BME280;61199;47.526;8.538;2022-07-04T05:11:40;96873.53;;;20.62;76.44
73024;BME280;61199;47.526;8.538;2022-07-04T05:14:06;96877.38;;;20.89;75.73
73024;BME280;61199;47.526;8.538;2022-07-04T05:16:31;96886.34;;;21.02;74.60
73024;BME280;61199;47.526;8.538;2022-07-04T05:18:56;96896.94;;;20.96;74.97
73024;BME280;61199;47.526;8.538;2022-07-04T05:21:22;96907.53;;;21.24;74.20
73024;BME280;61199;47.526;8.538;2022-07-04T05:23:47;96907.22;;;21.34;73.71
73024;BME280;61199;47.526;8.538;2022-07-04T05:26:12;96903.22;;;21.44;74.06
73024;BME280;61199;47.526;8.538;2022-07-04T05:28:37;96899.59;;;21.66;74.01
73024;BME280;61199;47.526;8.538;2022-07-04T05:31:03;96890.69;;;21.80;72.13
73024;BME280;61199;47.526;8.538;2022-07-04T05:33:28;96881.19;;;21.99;71.69
73024;BME280;61199;47.526;8.538;2022-07-04T05:35:53;96885.31;;;22.01;72.21
73024;BME280;61199;47.526;8.538;2022-07-04T05:38:19;96883.81;;;21.92;71.69
73024;BME280;61199;47.526;8.538;2022-07-04T05:40:44;96877.91;;;21.97;70.93
73024;BME280;61199;47.526;8.538;2022-07-04T05:43:10;96878.22;;;21.87;70.37
73024;BME280;61199;47.526;8.538;2022-07-04T05:45:37;96885.25;;;21.95;70.67
73024;BME280;61199;47.526;8.538;2022-07-04T05:48:02;96891.81;;;21.71;71.96
73024;BME280;61199;47.526;8.538;2022-07-04T05:50:27;96894.19;;;21.81;72.10
73024;BME280;61199;47.526;8.538;2022-07-04T05:52:53;96891.28;;;21.61;72.99
73024;BME280;61199;47.526;8.538;2022-07-04T05:55:18;96892.31;;;21.60;72.54
73024;BME280;61199;47.526;8.538;2022-07-04T05:57:43;96888.56;;;21.55;73.30
73024;BME280;61199;47.526;8.538;2022-07-04T06:00:09;96879.03;;;21.04;74.76
73024;BME280;61199;47.526;8.538;2022-07-04T06:02:34;96865.16;;;20.94;76.08
73024;BME280;61199;47.526;8.538;2022-07-04T06:04:59;96852.41;;;20.90;75.83
73024;BME280;61199;47.526;8.538;2022-07-04T06:07:25;96849.72;;;20.90;75.87
73024;BME280;61199;47.526;8.538;2022-07-04T06:09:50;96839.25;;;21.03;75.75
73024;BME280;61199;47.526;8.538;2022-07-04T06:12:15;96827.97;;;21.21;75.28
73024;BME280;61199;47.526;8.538;2022-07-04T06:14:41;96815.03;;;21.18;74.04
73024;BME280;61199;47.526;8.538;2022-07-04T06:17:06;96798.38;;;21.16;74.62
73024;BME280;61199;47.526;8.538;2022-07-04T06:19:31;96792.56;;;21.27;74.25
73024;BME280;61199;47.526;8.538;2022-07-04T06:21:57;96790.88;;;21.47;73.86
73024;BME280;61199;47.526;8.538;2022-07-04T06:24:22;96782.97;;;21.60;73.24
73024;BME280;61199;47.526;8.538;2022-07-04T06:26:48;96762.03;;;21.57;73.06
73024;BME280;61199;47.526;8.538;2022-07-04T06:29:13;96753.81;;;21.80;71.98
73024;BME280;61199;47.526;8.538;2022-07-04T06:31:38;96768.84;;;21.87;71.42
73024;BME280;61199;47.526;8.538;2022-07-04T06:34:03;96765.25;;;22.01;71.58
73024;BME280;61199;47.526;8.538;2022-07-04T06:36:47;96761.84;;;22.14;71.31
73024;BME280;61199;47.526;8.538;2022-07-04T06:39:13;96754.22;;;22.17;71.16
73024;BME280;61199;47.526;8.538;2022-07-04T06:41:38;96762.78;;;22.06;70.48
73024;BME280;61199;47.526;8.538;2022-07-04T06:44:04;96780.19;;;21.96;70.79
73024;BME280;61199;47.526;8.538;2022-07-04T06:46:30;96797.03;;;21.69;71.79
73024;BME280;61199;47.526;8.538;2022-07-04T06:48:55;96822.06;;;21.95;71.83
73024;BME280;61199;47.526;8.538;2022-07-04T06:51:21;96830.38;;;22.13;71.58
73024;BME280;61199;47.526;8.538;2022-07-04T06:53:46;96834.22;;;22.32;71.17
73024;BME280;61199;47.526;8.538;2022-07-04T06:56:12;96834.25;;;22.38;71.40
73024;BME280;61199;47.526;8.538;2022-07-04T06:58:37;96831.03;;;22.49;71.17
73024;BME280;61199;47.526;8.538;2022-07-04T07:01:03;96824.78;;;22.36;71.35
73024;BME280;61199;47.526;8.538;2022-07-04T07:03:28;96823.25;;;22.54;70.07
73024;BME280;61199;47.526;8.538;2022-07-04T07:05:54;96817.13;;;22.67;69.98
73024;BME280;61199;47.526;8.538;2022-07-04T07:08:21;96799.09;;;22.69;69.91
73024;BME280;61199;47.526;8.538;2022-07-04T07:10:46;96777.72;;;22.35;70.97
73024;BME280;61199;47.526;8.538;2022-07-04T07:13:11;96750.13;;;22.55;70.90
73024;BME280;61199;47.526;8.538;2022-07-04T07:15:37;96746.03;;;22.72;70.37
73024;BME280;61199;47.526;8.538;2022-07-04T07:18:03;96759.88;;;22.89;70.08
73024;BME280;61199;47.526;8.538;2022-07-04T07:20:28;96767.06;;;22.88;69.75
73024;BME280;61199;47.526;8.538;2022-07-04T07:22:54;96774.47;;;22.93;69.00
73024;BME280;61199;47.526;8.538;2022-07-04T07:25:19;96781.03;;;22.90;69.40
73024;BME280;61199;47.526;8.538;2022-07-04T07:27:45;96782.28;;;22.94;69.34
73024;BME280;61199;47.526;8.538;2022-07-04T07:30:10;96792.13;;;22.87;69.54
73024;BME280;61199;47.526;8.538;2022-07-04T07:32:36;96783.50;;;22.92;69.01
73024;BME280;61199;47.526;8.538;2022-07-04T07:35:01;96781.03;;;22.90;69.00
73024;BME280;61199;47.526;8.538;2022-07-04T07:37:27;96776.50;;;22.78;69.77
73024;BME280;61199;47.526;8.538;2022-07-04T07:39:52;96771.63;;;23.07;68.49
73024;BME280;61199;47.526;8.538;2022-07-04T07:42:18;96760.97;;;23.14;68.61
73024;BME280;61199;47.526;8.538;2022-07-04T07:44:43;96749.44;;;23.13;69.23
73024;BME280;61199;47.526;8.538;2022-07-04T07:47:12;96754.81;;;23.20;69.58
73024;BME280;61199;47.526;8.538;2022-07-04T07:49:38;96763.00;;;23.12;70.13
73024;BME280;61199;47.526;8.538;2022-07-04T07:52:04;96750.72;;;23.24;68.82
73024;BME280;61199;47.526;8.538;2022-07-04T07:54:29;96746.38;;;23.42;67.74
73024;BME280;61199;47.526;8.538;2022-07-04T07:56:55;96740.63;;;23.45;67.88
73024;BME280;61199;47.526;8.538;2022-07-04T07:59:20;96752.34;;;23.44;67.38
73024;BME280;61199;47.526;8.538;2022-07-04T08:01:45;96759.38;;;23.52;67.23
73024;BME280;61199;47.526;8.538;2022-07-04T08:04:10;96757.94;;;23.43;67.27
73024;BME280;61199;47.526;8.538;2022-07-04T08:07:11;96755.22;;;23.56;65.73
73024;BME280;61199;47.526;8.538;2022-07-04T08:09:37;96763.47;;;23.48;65.95
73024;BME280;61199;47.526;8.538;2022-07-04T08:12:05;96765.13;;;23.55;65.50
73024;BME280;61199;47.526;8.538;2022-07-04T08:14:32;96763.03;;;23.70;65.12
73024;BME280;61199;47.526;8.538;2022-07-04T08:16:58;96769.22;;;23.71;64.86
73024;BME280;61199;47.526;8.538;2022-07-04T08:19:24;96768.38;;;23.77;64.77
73024;BME280;61199;47.526;8.538;2022-07-04T08:21:53;96772.31;;;23.87;63.98
73024;BME280;61199;47.526;8.538;2022-07-04T08:24:19;96770.03;;;23.84;64.83
73024;BME280;61199;47.526;8.538;2022-07-04T08:26:44;96777.03;;;23.98;64.37
73024;BME280;61199;47.526;8.538;2022-07-04T08:29:10;96773.75;;;23.96;63.95
73024;BME280;61199;47.526;8.538;2022-07-04T08:31:35;96779.09;;;24.03;63.62
73024;BME280;61199;47.526;8.538;2022-07-04T08:34:01;96776.63;;;24.01;63.42
73024;BME280;61199;47.526;8.538;2022-07-04T08:36:26;96774.97;;;24.07;63.23
73024;BME280;61199;47.526;8.538;2022-07-04T08:38:51;96774.13;;;24.13;63.50
73024;BME280;61199;47.526;8.538;2022-07-04T08:41:19;96764.84;;;24.15;64.08
73024;BME280;61199;47.526;8.538;2022-07-04T08:43:47;96760.31;;;24.22;63.81
73024;BME280;61199;47.526;8.538;2022-07-04T08:46:15;96763.38;;;24.26;63.27
73024;BME280;61199;47.526;8.538;2022-07-04T08:48:42;96770.78;;;24.30;63.43
73024;BME280;61199;47.526;8.538;2022-07-04T08:52:06;96763.63;;;24.18;62.80
73024;BME280;61199;47.526;8.538;2022-07-04T08:54:07;96761.75;;;24.18;61.91
73024;BME280;61199;47.526;8.538;2022-07-04T08:56:54;96758.56;;;24.40;62.02
73024;BME280;61199;47.526;8.538;2022-07-04T08:59:39;96751.34;;;24.54;61.37
73024;BME280;61199;47.526;8.538;2022-07-04T09:02:05;96762.91;;;24.54;61.65
73024;BME280;61199;47.526;8.538;2022-07-04T09:04:31;96763.28;;;24.45;62.53
73024;BME280;61199;47.526;8.538;2022-07-04T09:06:57;96771.09;;;24.53;61.88
73024;BME280;61199;47.526;8.538;2022-07-04T09:09:23;96769.47;;;24.52;61.78
73024;BME280;61199;47.526;8.538;2022-07-04T09:11:49;96765.38;;;24.56;61.67
73024;BME280;61199;47.526;8.538;2022-07-04T09:14:15;96763.47;;;24.69;61.07
73024;BME280;61199;47.526;8.538;2022-07-04T09:16:40;96772.56;;;24.55;60.07
73024;BME280;61199;47.526;8.538;2022-07-04T09:19:09;96778.78;;;24.56;60.05
73024;BME280;61199;47.526;8.538;2022-07-04T09:21:45;96765.47;;;24.17;60.92
73024;BME280;61199;47.526;8.538;2022-07-04T09:24:10;96767.97;;;24.12;61.07
73024;BME280;61199;47.526;8.538;2022-07-04T09:26:40;96768.88;;;24.37;60.62
73024;BME280;61199;47.526;8.538;2022-07-04T09:29:05;96773.25;;;24.38;60.28
73024;BME280;61199;47.526;8.538;2022-07-04T09:31:30;96774.13;;;24.13;61.22
73024;BME280;61199;47.526;8.538;2022-07-04T09:33:58;96770.38;;;24.27;61.02
73024;BME280;61199;47.526;8.538;2022-07-04T09:36:25;96769.97;;;24.23;60.96
73024;BME280;61199;47.526;8.538;2022-07-04T09:39:16;96768.41;;;23.57;62.41
73024;BME280;61199;47.526;8.538;2022-07-04T09:42:03;96771.28;;;23.82;62.75
73024;BME280;61199;47.526;8.538;2022-07-04T09:44:43;96761.34;;;24.08;61.41
73024;BME280;61199;47.526;8.538;2022-07-04T09:47:21;96760.88;;;24.31;60.45
73024;BME280;61199;47.526;8.538;2022-07-04T09:52:59;96752.66;;;24.32;59.40
73024;BME280;61199;47.526;8.538;2022-07-04T09:57:52;96751.06;;;24.68;58.72
73024;BME280;61199;47.526;8.538;2022-07-04T10:00:20;96755.03;;;24.53;59.35
73024;BME280;61199;47.526;8.538;2022-07-04T10:02:46;96752.34;;;24.59;58.50
73024;BME280;61199;47.526;8.538;2022-07-04T10:05:11;96751.44;;;24.28;60.12
73024;BME280;61199;47.526;8.538;2022-07-04T10:07:38;96741.59;;;24.16;60.17
73024;BME280;61199;47.526;8.538;2022-07-04T10:10:32;96746.72;;;24.17;59.73
73024;BME280;61199;47.526;8.538;2022-07-04T10:13:07;96746.72;;;24.24;59.70
73024;BME280;61199;47.526;8.538;2022-07-04T10:15:35;96751.34;;;24.54;58.60
73024;BME280;61199;47.526;8.538;2022-07-04T10:18:08;96752.78;;;24.50;58.64
73024;BME280;61199;47.526;8.538;2022-07-04T10:20:35;96752.59;;;24.45;59.75
73024;BME280;61199;47.526;8.538;2022-07-04T10:23:03;96748.78;;;24.72;58.58
73024;BME280;61199;47.526;8.538;2022-07-04T10:25:29;96750.78;;;24.89;58.21
73024;BME280;61199;47.526;8.538;2022-07-04T10:27:55;96755.63;;;24.99;57.59
73024;BME280;61199;47.526;8.538;2022-07-04T10:30:26;96744.41;;;24.84;57.71
73024;BME280;61199;47.526;8.538;2022-07-04T10:32:55;96751.75;;;24.95;57.61
73024;BME280;61199;47.526;8.538;2022-07-04T10:38:15;96748.09;;;24.89;56.83
73024;BME280;61199;47.526;8.538;2022-07-04T10:45:51;96740.97;;;25.39;56.34
73024;BME280;61199;47.526;8.538;2022-07-04T10:48:21;96742.94;;;25.50;56.48
73024;BME280;61199;47.526;8.538;2022-07-04T10:53:24;96737.56;;;25.50;56.63
73024;BME280;61199;47.526;8.538;2022-07-04T10:55:49;96735.94;;;25.49;56.67
73024;BME280;61199;47.526;8.538;2022-07-04T10:58:38;96734.63;;;25.58;55.30
73024;BME280;61199;47.526;8.538;2022-07-04T11:01:21;96724.66;;;25.83;54.83
73024;BME280;61199;47.526;8.538;2022-07-04T11:03:49;96730.16;;;25.94;54.58
73024;BME280;61199;47.526;8.538;2022-07-04T11:09:20;96735.13;;;25.91;53.24
73024;BME280;61199;47.526;8.538;2022-07-04T11:11:56;96737.66;;;25.86;54.04
73024;BME280;61199;47.526;8.538;2022-07-04T11:17:08;96731.91;;;25.82;54.28
73024;BME280;61199;47.526;8.538;2022-07-04T11:19:34;96725.81;;;25.20;56.49
73024;BME280;61199;47.526;8.538;2022-07-04T11:22:00;96715.75;;;25.64;55.86
73024;BME280;61199;47.526;8.538;2022-07-04T11:24:26;96717.03;;;25.80;54.85
73024;BME280;61199;47.526;8.538;2022-07-04T11:26:52;96713.31;;;25.81;55.31
73024;BME280;61199;47.526;8.538;2022-07-04T11:29:18;96708.97;;;26.04;54.50
73024;BME280;61199;47.526;8.538;2022-07-04T11:31:45;96709.94;;;26.28;54.00
73024;BME280;61199;47.526;8.538;2022-07-04T11:34:11;96707.69;;;26.43;53.79
73024;BME280;61199;47.526;8.538;2022-07-04T11:36:42;96707.69;;;26.43;53.32
73024;BME280;61199;47.526;8.538;2022-07-04T11:39:09;96707.47;;;25.90;53.31
73024;BME280;61199;47.526;8.538;2022-07-04T11:41:42;96708.28;;;25.91;53.71
73024;BME280;61199;47.526;8.538;2022-07-04T11:44:45;96708.16;;;26.04;52.00
73024;BME280;61199;47.526;8.538;2022-07-04T11:47:38;96694.50;;;25.63;52.31
73024;BME280;61199;47.526;8.538;2022-07-04T11:50:13;96686.22;;;25.64;53.23
73024;BME280;61199;47.526;8.538;2022-07-04T11:52:49;96688.16;;;26.00;52.53
73024;BME280;61199;47.526;8.538;2022-07-04T11:55:20;96685.84;;;25.61;53.21
73024;BME280;61199;47.526;8.538;2022-07-04T11:57:50;96682.31;;;25.42;53.56
73024;BME280;61199;47.526;8.538;2022-07-04T12:00:18;96678.25;;;25.58;54.11
73024;BME280;61199;47.526;8.538;2022-07-04T12:02:46;96678.59;;;25.86;52.94
73024;BME280;61199;47.526;8.538;2022-07-04T12:05:13;96684.25;;;25.78;53.52
73024;BME280;61199;47.526;8.538;2022-07-04T12:07:46;96687.69;;;25.42;54.10
73024;BME280;61199;47.526;8.538;2022-07-04T12:10:13;96687.63;;;25.49;54.51
73024;BME280;61199;47.526;8.538;2022-07-04T12:12:59;96682.47;;;25.23;55.75
73024;BME280;61199;47.526;8.538;2022-07-04T12:15:31;96685.38;;;25.21;55.62
73024;BME280;61199;47.526;8.538;2022-07-04T12:18:01;96670.16;;;25.15;55.76
73024;BME280;61199;47.526;8.538;2022-07-04T12:20:26;96661.03;;;25.23;55.10
73024;BME280;61199;47.526;8.538;2022-07-04T12:22:53;96666.09;;;25.55;54.86
73024;BME280;61199;47.526;8.538;2022-07-04T12:25:39;96653.34;;;25.69;54.75
73024;BME280;61199;47.526;8.538;2022-07-04T12:28:12;96639.59;;;26.01;53.87
73024;BME280;61199;47.526;8.538;2022-07-04T12:30:49;96625.03;;;26.09;54.30
73024;BME280;61199;47.526;8.538;2022-07-04T12:33:18;96623.94;;;26.28;54.39
73024;BME280;61199;47.526;8.538;2022-07-04T12:35:49;96624.22;;;26.56;53.11
73024;BME280;61199;47.526;8.538;2022-07-04T12:41:02;96604.41;;;26.80;51.88
73024;BME280;61199;47.526;8.538;2022-07-04T12:46:10;96594.84;;;26.95;51.19
73024;BME280;61199;47.526;8.538;2022-07-04T12:48:37;96591.72;;;26.98;51.18
73024;BME280;61199;47.526;8.538;2022-07-04T12:51:30;96579.56;;;27.07;50.47
73024;BME280;61199;47.526;8.538;2022-07-04T12:53:56;96579.22;;;27.15;50.23
73024;BME280;61199;47.526;8.538;2022-07-04T12:58:58;96591.63;;;27.39;50.27
73024;BME280;61199;47.526;8.538;2022-07-04T13:01:24;96580.06;;;27.39;49.30
73024;BME280;61199;47.526;8.538;2022-07-04T13:03:49;96583.66;;;27.56;48.53
73024;BME280;61199;47.526;8.538;2022-07-04T13:06:14;96586.81;;;27.64;49.39
73024;BME280;61199;47.526;8.538;2022-07-04T13:08:40;96570.97;;;27.90;49.06
73024;BME280;61199;47.526;8.538;2022-07-04T13:11:05;96572.91;;;28.06;48.86
73024;BME280;61199;47.526;8.538;2022-07-04T13:13:49;96581.53;;;27.92;46.88
73024;BME280;61199;47.526;8.538;2022-07-04T13:16:14;96579.41;;;27.94;44.88
73024;BME280;61199;47.526;8.538;2022-07-04T13:18:40;96584.16;;;27.30;48.01
73024;BME280;61199;47.526;8.538;2022-07-04T13:21:05;96599.22;;;26.55;50.47
73024;BME280;61199;47.526;8.538;2022-07-04T13:23:31;96596.22;;;26.63;50.48
73024;BME280;61199;47.526;8.538;2022-07-04T13:25:56;96595.41;;;26.74;50.14
73024;BME280;61199;47.526;8.538;2022-07-04T13:28:21;96599.06;;;26.21;48.31
73024;BME280;61199;47.526;8.538;2022-07-04T13:30:47;96586.25;;;26.05;48.75
73024;BME280;61199;47.526;8.538;2022-07-04T13:33:12;96585.94;;;26.13;48.72